Time;durP1;ratioP1;P1;durP2;ratioP2;P2;SDS_P1;SDS_P2;PMS_P1;PMS_P2;Temp;Humidity;BMP_temperature;BMP_pressure;BME280_temperature;BME280_humidity;BME280_pressure;Samples;Min_cycle;Max_cycle;Signal;HPM_P1;HPM_P2
2022/12/27 00:01:46;;;;;;;11.43;3.43;;;4.20;99.90;;;;;;5066255;28;20548;-64
2022/12/27 00:04:15;;;;;;;6.50;2.90;;;4.20;99.90;;;;;;5062489;28;20249;-64
2022/12/27 00:06:44;;;;;;;12.10;3.03;;;4.10;99.90;;;;;;5066883;28;20188;-64
2022/12/27 00:09:12;;;;;;;11.13;3.60;;;4.10;99.90;;;;;;5066841;28;20279;-64
2022/12/27 00:11:42;;;;;;;8.93;3.30;;;4.00;99.90;;;;;;5066588;28;20230;-65
2022/12/27 00:14:11;;;;;;;8.50;3.00;;;4.00;99.90;;;;;;5072678;28;20299;-65
2022/12/27 00:16:40;;;;;;;8.43;3.50;;;4.10;99.90;;;;;;5065562;28;20666;-64
2022/12/27 00:19:09;;;;;;;6.53;3.20;;;4.00;99.90;;;;;;5068826;28;20192;-64
2022/12/27 00:21:37;;;;;;;9.47;3.20;;;4.10;99.90;;;;;;5070716;28;20184;-64
2022/12/27 00:24:06;;;;;;;10.30;3.50;;;4.10;99.90;;;;;;5098877;28;20226;-64
2022/12/27 00:26:35;;;;;;;10.50;3.23;;;4.20;99.90;;;;;;5068965;28;20193;-64
2022/12/27 00:29:05;;;;;;;8.37;3.27;;;4.10;99.90;;;;;;5071329;28;20188;-64
2022/12/27 00:31:34;;;;;;;10.50;4.17;;;4.20;99.90;;;;;;5066399;28;20188;-64
2022/12/27 00:34:06;;;;;;;8.80;3.13;;;4.10;99.90;;;;;;5073344;28;20217;-64
2022/12/27 00:36:35;;;;;;;9.57;3.00;;;4.10;99.90;;;;;;5073977;28;20192;-64
2022/12/27 00:39:04;;;;;;;7.47;2.93;;;4.00;99.90;;;;;;5063027;28;20192;-64
2022/12/27 00:41:32;;;;;;;7.07;3.00;;;4.00;99.90;;;;;;5071995;28;20202;-65
2022/12/27 00:44:01;;;;;;;10.77;3.17;;;4.00;99.90;;;;;;5073374;28;20188;-64
2022/12/27 00:46:31;;;;;;;6.33;3.10;;;4.00;99.90;;;;;;5070084;28;20199;-64
2022/12/27 00:48:59;;;;;;;17.60;3.47;;;4.00;99.90;;;;;;5082956;28;20262;-65
2022/12/27 00:51:27;;;;;;;10.27;3.07;;;3.90;99.90;;;;;;5065595;28;20196;-64
2022/12/27 00:53:56;;;;;;;7.73;2.83;;;3.90;99.90;;;;;;5070404;28;20218;-64
2022/12/27 00:56:26;;;;;;;9.30;2.90;;;3.90;99.90;;;;;;5083044;28;20215;-64
2022/12/27 00:58:56;;;;;;;7.97;3.07;;;3.90;99.90;;;;;;5068754;28;20203;-64
2022/12/27 01:01:26;;;;;;;11.13;3.13;;;3.90;99.90;;;;;;5068195;28;20189;-64
2022/12/27 01:03:56;;;;;;;6.50;2.83;;;3.90;99.90;;;;;;5070547;28;20212;-64
2022/12/27 01:06:29;;;;;;;6.93;3.13;;;3.90;99.90;;;;;;5061963;28;20720;-64
2022/12/27 01:08:58;;;;;;;4.63;3.37;;;3.90;99.90;;;;;;5071364;28;20278;-64
2022/12/27 01:11:27;;;;;;;5.87;2.70;;;3.90;99.90;;;;;;5064134;28;20307;-64
2022/12/27 01:13:56;;;;;;;8.33;3.00;;;3.90;99.90;;;;;;5068553;28;20208;-64
2022/12/27 01:16:26;;;;;;;5.23;2.70;;;3.90;99.90;;;;;;5066047;28;20196;-64
2022/12/27 01:18:57;;;;;;;10.90;3.00;;;3.90;99.90;;;;;;5067510;28;20646;-64
2022/12/27 01:21:29;;;;;;;3.60;3.30;;;3.90;99.90;;;;;;5064835;28;20666;-64
2022/12/27 01:23:58;;;;;;;7.27;3.13;;;3.90;99.90;;;;;;5065024;28;20212;-64
2022/12/27 01:26:30;;;;;;;5.40;2.90;;;3.90;99.90;;;;;;5063380;28;20562;-64
2022/12/27 01:28:58;;;;;;;11.53;3.23;;;3.90;99.90;;;;;;5068429;28;20283;-64
2022/12/27 01:31:28;;;;;;;10.97;2.80;;;3.80;99.90;;;;;;5067929;28;20226;-64
2022/12/27 01:33:59;;;;;;;7.17;3.07;;;3.70;99.90;;;;;;5071177;28;20208;-64
2022/12/27 01:36:30;;;;;;;6.80;3.00;;;3.70;99.90;;;;;;5071909;28;20206;-64
2022/12/27 01:39:00;;;;;;;10.67;3.40;;;3.70;99.90;;;;;;5072860;28;20608;-64
2022/12/27 01:44:48;;;;;;;8.17;3.27;;;3.70;99.90;;;;;;5073884;28;20188;-64
2022/12/27 01:47:24;;;;;;;8.23;3.50;;;3.70;99.90;;;;;;5078953;28;20195;-64
2022/12/27 01:50:03;;;;;;;4.27;3.03;;;3.70;99.90;;;;;;5066740;28;20204;-64
2022/12/27 01:52:37;;;;;;;7.10;3.60;;;3.60;99.90;;;;;;5071873;28;20200;-64
2022/12/27 01:55:15;;;;;;;8.70;3.50;;;3.60;99.90;;;;;;5057405;28;20240;-64
2022/12/27 01:57:44;;;;;;;11.97;3.50;;;3.60;99.90;;;;;;5076473;28;20200;-65
2022/12/27 02:00:13;;;;;;;14.17;4.40;;;3.60;99.90;;;;;;5067223;28;20286;-64
2022/12/27 02:02:41;;;;;;;10.53;3.57;;;3.70;99.90;;;;;;5068341;28;20663;-64
2022/12/27 02:05:14;;;;;;;8.87;3.30;;;3.70;99.90;;;;;;5072516;28;20184;-64
2022/12/27 02:07:53;;;;;;;12.33;3.80;;;3.70;99.90;;;;;;5075924;28;20679;-64
2022/12/27 02:10:21;;;;;;;5.60;3.13;;;3.60;99.90;;;;;;5076392;28;20195;-64
2022/12/27 02:12:50;;;;;;;17.77;3.60;;;3.60;99.90;;;;;;5073298;28;20690;-64
2022/12/27 02:15:20;;;;;;;13.10;3.47;;;3.50;99.90;;;;;;5069487;28;20246;-64
2022/12/27 02:17:49;;;;;;;7.30;3.70;;;3.50;99.90;;;;;;5074660;28;20203;-64
2022/12/27 02:20:21;;;;;;;7.87;4.03;;;3.60;99.90;;;;;;5069193;28;20243;-64
2022/12/27 02:26:46;;;;;;;9.50;3.70;;;3.50;99.90;;;;;;4983235;28;20608;-64
2022/12/27 02:29:40;;;;;;;13.63;4.00;;;3.50;99.90;;;;;;5005052;28;20206;-64
2022/12/27 02:32:13;;;;;;;8.23;3.70;;;3.50;99.90;;;;;;5059786;28;20647;-64
2022/12/27 02:34:50;;;;;;;9.70;4.30;;;3.50;99.90;;;;;;5065714;28;20200;-64
2022/12/27 02:37:21;;;;;;;9.50;3.30;;;3.50;99.90;;;;;;5066375;28;20207;-64
2022/12/27 02:39:51;;;;;;;10.57;3.97;;;3.50;99.90;;;;;;5070133;28;20601;-64
2022/12/27 02:54:09;;;;;;;9.90;3.60;;;3.50;99.90;;;;;;5096809;28;20196;-64
2022/12/27 03:06:38;;;;;;;14.20;3.70;;;3.50;99.90;;;;;;5065156;28;20188;-64
2022/12/27 03:08:47;;;;;;;17.07;4.30;;;3.60;99.90;;;;;;5068530;28;20520;-65
2022/12/27 03:17:02;;;;;;;10.50;3.47;;;3.60;99.90;;;;;;5062232;28;20200;-64
2022/12/27 03:25:29;;;;;;;15.53;4.13;;;3.50;99.90;;;;;;5081081;28;20299;-64
2022/12/27 03:34:30;;;;;;;12.10;3.73;;;3.40;99.90;;;;;;5004294;28;20216;-64
2022/12/27 03:39:40;;;;;;;7.57;3.70;;;3.40;99.90;;;;;;5048647;28;20201;-64
2022/12/27 03:45:01;;;;;;;6.77;3.33;;;3.30;99.90;;;;;;5066892;28;20196;-64
2022/12/27 03:47:35;;;;;;;7.90;3.77;;;3.40;99.90;;;;;;5069536;28;20203;-65
2022/12/27 03:50:08;;;;;;;6.90;3.20;;;3.30;99.90;;;;;;5067716;28;20201;-64
2022/12/27 03:52:42;;;;;;;12.93;4.00;;;3.30;99.90;;;;;;5064994;28;20551;-64
2022/12/27 03:55:12;;;;;;;9.93;3.57;;;3.30;99.90;;;;;;5064634;28;20214;-64
2022/12/27 03:57:40;;;;;;;9.53;3.70;;;3.20;99.90;;;;;;5061656;28;20577;-64
2022/12/27 04:00:10;;;;;;;12.03;3.40;;;3.30;99.90;;;;;;5070663;28;20218;-64
2022/12/27 04:02:39;;;;;;;8.53;3.83;;;3.20;99.90;;;;;;5065912;28;20227;-64
2022/12/27 04:05:09;;;;;;;12.80;4.03;;;3.20;99.90;;;;;;5064875;28;20196;-64
2022/12/27 04:35:18;;;;;;;8.80;4.50;;;3.10;99.90;;;;;;5050997;28;20220;-65
2022/12/27 04:37:47;;;;;;;11.90;4.63;;;3.10;99.90;;;;;;5069267;28;20196;-64
2022/12/27 04:57:02;;;;;;;16.97;5.50;;;3.00;99.90;;;;;;5062225;28;20208;-64
2022/12/27 05:02:18;;;;;;;12.43;4.43;;;3.00;99.90;;;;;;5069475;28;20195;-64
2022/12/27 05:04:48;;;;;;;7.80;4.07;;;3.10;99.90;;;;;;5095991;28;20276;-64
2022/12/27 05:15:44;;;;;;;6.90;4.27;;;3.00;99.90;;;;;;5067936;28;20796;-64
2022/12/27 05:18:12;;;;;;;11.67;4.00;;;3.10;99.90;;;;;;5075476;28;20197;-64
2022/12/27 05:20:41;;;;;;;9.67;4.47;;;3.10;99.90;;;;;;5063177;28;20201;-64
2022/12/27 05:25:57;;;;;;;9.23;4.03;;;3.10;99.90;;;;;;5065518;28;20715;-64
2022/12/27 05:28:27;;;;;;;14.33;4.40;;;3.10;99.90;;;;;;5068632;28;20208;-64
2022/12/27 05:31:01;;;;;;;8.43;4.43;;;3.10;99.90;;;;;;5067171;28;20189;-64
2022/12/27 05:33:33;;;;;;;9.57;4.70;;;3.00;99.90;;;;;;5071847;28;20599;-64
2022/12/27 05:36:02;;;;;;;7.50;3.83;;;3.10;99.90;;;;;;5072467;28;20295;-64
2022/12/27 05:38:30;;;;;;;10.80;4.60;;;3.10;99.90;;;;;;5072076;28;20705;-64
2022/12/27 05:40:59;;;;;;;13.17;5.10;;;3.10;99.90;;;;;;5063825;28;20205;-64
2022/12/27 05:43:29;;;;;;;16.53;5.23;;;3.20;99.90;;;;;;5065131;28;20200;-64
2022/12/27 05:46:03;;;;;;;10.43;4.80;;;3.20;99.90;;;;;;5065385;28;20587;-64
2022/12/27 05:48:32;;;;;;;11.67;4.30;;;3.10;99.90;;;;;;5074163;28;20203;-64
2022/12/27 05:51:05;;;;;;;6.93;4.30;;;3.10;99.90;;;;;;5066879;28;20651;-64
2022/12/27 05:53:34;;;;;;;7.13;4.80;;;3.10;99.90;;;;;;5066055;28;20199;-64
2022/12/27 05:56:03;;;;;;;7.77;4.77;;;3.10;99.90;;;;;;5069715;28;20235;-64
2022/12/27 05:58:33;;;;;;;8.83;5.13;;;3.10;99.90;;;;;;5075022;28;20197;-64
2022/12/27 06:01:02;;;;;;;12.23;4.97;;;3.10;99.90;;;;;;5068502;28;20203;-65
2022/12/27 06:03:30;;;;;;;11.07;4.77;;;3.10;99.90;;;;;;5062355;28;20196;-64
2022/12/27 06:06:03;;;;;;;11.20;4.80;;;3.10;99.90;;;;;;5068836;28;20708;-64
2022/12/27 06:08:31;;;;;;;13.23;5.53;;;3.10;99.90;;;;;;5068511;28;20535;-64
2022/12/27 06:11:06;;;;;;;17.70;5.03;;;3.10;99.90;;;;;;5067202;28;20238;-64
2022/12/27 06:13:36;;;;;;;18.27;5.37;;;3.10;99.90;;;;;;5066640;28;20195;-64
2022/12/27 06:16:07;;;;;;;11.20;5.10;;;3.10;99.90;;;;;;5069604;28;20220;-64
2022/12/27 06:18:37;;;;;;;12.17;5.17;;;3.10;99.90;;;;;;5064993;28;20195;-65
2022/12/27 06:21:08;;;;;;;13.97;5.43;;;3.10;99.90;;;;;;5065628;28;20211;-64
2022/12/27 06:23:40;;;;;;;13.57;5.33;;;3.10;99.90;;;;;;5065068;28;20283;-64
2022/12/27 06:26:11;;;;;;;12.17;5.87;;;3.10;99.90;;;;;;5095381;28;20615;-64
2022/12/27 06:28:40;;;;;;;12.93;5.73;;;3.10;99.90;;;;;;5065383;28;20221;-64
2022/12/27 06:31:09;;;;;;;15.10;5.43;;;3.10;99.90;;;;;;5058225;28;20202;-64
2022/12/27 06:33:37;;;;;;;8.27;4.90;;;3.00;99.90;;;;;;5061687;28;20200;-64
2022/12/27 06:36:07;;;;;;;11.47;6.03;;;3.10;99.90;;;;;;5068040;28;20295;-64
2022/12/27 06:38:35;;;;;;;12.83;5.33;;;3.10;99.90;;;;;;5060395;28;20191;-64
2022/12/27 06:41:05;;;;;;;10.30;5.27;;;3.10;99.90;;;;;;5063463;28;20663;-64
2022/12/27 06:43:35;;;;;;;14.03;5.87;;;3.10;99.90;;;;;;5094807;28;20198;-64
2022/12/27 06:46:06;;;;;;;15.47;6.37;;;3.10;99.90;;;;;;5064767;28;20231;-64
2022/12/27 06:48:40;;;;;;;16.17;5.93;;;3.10;99.90;;;;;;5063448;28;20610;-64
2022/12/27 06:51:11;;;;;;;15.10;5.53;;;3.10;99.90;;;;;;5063402;28;20219;-64
2022/12/27 06:53:40;;;;;;;14.90;6.17;;;3.10;99.90;;;;;;5064574;28;20618;-64
2022/12/27 06:56:15;;;;;;;19.27;6.33;;;3.20;99.90;;;;;;5067389;28;20413;-64
2022/12/27 06:58:44;;;;;;;12.03;6.00;;;3.20;99.90;;;;;;5066687;28;20223;-64
2022/12/27 07:01:16;;;;;;;14.97;6.63;;;3.20;99.90;;;;;;5066421;28;20192;-64
2022/12/27 07:03:48;;;;;;;10.90;5.07;;;3.20;99.90;;;;;;5058852;28;20205;-64
2022/12/27 07:06:18;;;;;;;15.73;5.73;;;3.20;99.90;;;;;;5062728;28;20200;-64
2022/12/27 07:08:47;;;;;;;11.20;5.43;;;3.20;99.90;;;;;;5059797;28;20184;-64
2022/12/27 07:11:16;;;;;;;13.83;5.70;;;3.20;99.90;;;;;;5063019;28;20236;-64
2022/12/27 07:13:47;;;;;;;11.53;5.63;;;3.20;99.90;;;;;;5064613;28;20279;-64
2022/12/27 07:16:20;;;;;;;12.97;5.53;;;3.10;99.90;;;;;;5065447;28;20215;-64
2022/12/27 07:18:49;;;;;;;30.80;7.50;;;3.10;99.90;;;;;;5062933;28;20625;-64
2022/12/27 07:21:20;;;;;;;15.90;6.73;;;3.10;99.90;;;;;;5062903;28;20743;-64
2022/12/27 07:23:49;;;;;;;19.63;7.80;;;3.10;99.90;;;;;;5067344;28;20215;-64
2022/12/27 07:26:19;;;;;;;14.13;6.73;;;3.10;99.90;;;;;;5063373;28;20196;-64
2022/12/27 07:28:48;;;;;;;10.83;5.50;;;3.10;99.90;;;;;;5063626;28;20184;-64
2022/12/27 07:31:19;;;;;;;15.27;5.97;;;3.10;99.90;;;;;;5066346;28;20192;-64
2022/12/27 07:33:48;;;;;;;12.27;5.57;;;3.10;99.90;;;;;;5065593;28;20196;-64
2022/12/27 07:36:20;;;;;;;10.40;6.40;;;3.20;99.90;;;;;;5065929;28;20577;-64
2022/12/27 07:38:48;;;;;;;15.63;6.03;;;3.10;99.90;;;;;;5068869;28;20222;-65
2022/12/27 07:41:18;;;;;;;20.97;7.03;;;3.20;99.90;;;;;;5064397;28;20199;-64
2022/12/27 07:43:46;;;;;;;19.60;7.50;;;3.20;99.90;;;;;;5061678;28;20208;-64
2022/12/27 07:46:16;;;;;;;14.97;6.80;;;3.20;99.90;;;;;;5060189;28;20205;-64
2022/12/27 07:48:47;;;;;;;23.93;6.40;;;3.20;99.90;;;;;;5059043;28;20192;-65
2022/12/27 07:51:17;;;;;;;15.60;6.10;;;3.30;99.90;;;;;;5062828;28;20188;-64
2022/12/27 07:53:48;;;;;;;16.90;6.90;;;3.30;99.90;;;;;;5062932;28;20196;-64
2022/12/27 07:56:18;;;;;;;14.40;6.40;;;3.30;99.90;;;;;;5068814;28;20220;-64
2022/12/27 07:58:54;;;;;;;16.13;6.40;;;3.30;99.90;;;;;;5064763;28;20200;-64
2022/12/27 08:01:24;;;;;;;21.53;7.10;;;3.30;99.90;;;;;;5063233;28;20202;-64
2022/12/27 08:03:55;;;;;;;13.80;6.10;;;3.20;99.90;;;;;;5064238;28;20200;-64
2022/12/27 08:06:26;;;;;;;16.80;7.37;;;3.30;99.90;;;;;;5061922;28;20196;-65
2022/12/27 08:08:55;;;;;;;15.80;6.83;;;3.30;99.90;;;;;;5067706;28;20200;-65
2022/12/27 08:11:25;;;;;;;16.07;6.37;;;3.40;99.90;;;;;;5065676;28;20701;-64
2022/12/27 08:13:54;;;;;;;16.63;6.07;;;3.40;99.90;;;;;;5064776;28;20295;-64
2022/12/27 08:16:24;;;;;;;13.33;5.90;;;3.40;99.90;;;;;;5069516;28;20200;-63
2022/12/27 08:18:54;;;;;;;14.40;6.27;;;3.50;99.90;;;;;;5090493;28;20180;-65
2022/12/27 08:21:23;;;;;;;13.73;5.47;;;3.60;99.90;;;;;;5068508;28;20194;-65
2022/12/27 08:23:51;;;;;;;10.73;6.00;;;3.70;99.90;;;;;;5066175;28;20223;-64
2022/12/27 08:26:20;;;;;;;10.23;5.23;;;3.70;99.90;;;;;;5068695;28;20208;-65
2022/12/27 08:28:48;;;;;;;13.07;4.80;;;3.80;99.90;;;;;;5056354;28;20197;-65
2022/12/27 08:31:16;;;;;;;18.77;6.23;;;3.90;99.90;;;;;;5064392;28;20197;-65
2022/12/27 08:33:45;;;;;;;12.13;4.70;;;3.90;99.90;;;;;;5066177;28;20192;-65
2022/12/27 08:36:14;;;;;;;11.50;4.50;;;4.00;99.90;;;;;;5072652;28;20200;-65
2022/12/27 08:39:03;;;;;;;6.63;3.97;;;4.10;99.90;;;;;;5068227;28;20229;-65
2022/12/27 08:41:31;;;;;;;19.00;4.40;;;4.20;99.90;;;;;;5071076;28;20195;-65
2022/12/27 08:43:59;;;;;;;12.77;4.50;;;4.20;99.90;;;;;;5067410;28;20216;-65
2022/12/27 08:46:27;;;;;;;13.33;4.30;;;4.20;99.90;;;;;;5068228;28;20584;-64
2022/12/27 08:48:56;;;;;;;10.07;4.47;;;4.20;99.90;;;;;;5069088;28;20200;-65
2022/12/27 08:51:25;;;;;;;15.93;4.63;;;4.10;99.90;;;;;;5067992;28;20204;-65
2022/12/27 08:54:07;;;;;;;10.30;4.30;;;4.10;99.90;;;;;;5065612;28;20204;-65
2022/12/27 08:56:36;;;;;;;9.07;3.90;;;4.10;99.90;;;;;;5065921;28;20199;-65
2022/12/27 08:59:04;;;;;;;9.63;4.43;;;4.20;99.90;;;;;;5071660;28;20219;-65
2022/12/27 09:01:32;;;;;;;13.03;4.73;;;4.10;99.90;;;;;;5069544;28;20188;-65
2022/12/27 09:04:01;;;;;;;6.03;4.03;;;4.10;99.90;;;;;;5069858;28;20576;-65
2022/12/27 09:06:31;;;;;;;12.60;4.60;;;4.20;99.90;;;;;;5068424;28;20208;-65
2022/12/27 09:09:00;;;;;;;11.07;3.70;;;4.30;99.90;;;;;;5070762;28;20202;-65
2022/12/27 09:11:30;;;;;;;6.23;3.83;;;4.40;99.90;;;;;;5067073;28;20232;-65
2022/12/27 09:14:02;;;;;;;5.70;3.33;;;4.40;99.90;;;;;;5067748;28;20196;-65
2022/12/27 09:16:32;;;;;;;6.90;3.70;;;4.50;99.90;;;;;;5066446;28;20188;-65
2022/12/27 09:19:01;;;;;;;8.40;3.50;;;4.70;99.90;;;;;;5062611;28;20266;-65
2022/12/27 09:21:33;;;;;;;12.70;3.63;;;4.70;99.90;;;;;;5070914;28;20709;-65
2022/12/27 09:24:02;;;;;;;8.37;3.83;;;4.80;99.90;;;;;;5073486;28;20230;-65
2022/12/27 09:26:31;;;;;;;8.90;4.03;;;4.80;99.90;;;;;;5068373;28;20188;-65
2022/12/27 09:29:00;;;;;;;6.50;3.73;;;4.80;99.90;;;;;;5063086;28;20208;-65
2022/12/27 09:31:29;;;;;;;9.47;3.37;;;4.80;99.90;;;;;;5067964;28;20216;-65
2022/12/27 09:33:58;;;;;;;11.30;4.03;;;4.80;99.90;;;;;;5064413;28;20247;-65
2022/12/27 09:36:28;;;;;;;5.03;3.40;;;4.80;99.90;;;;;;5062930;28;20200;-65
2022/12/27 09:38:59;;;;;;;16.60;3.83;;;5.00;99.90;;;;;;5057858;28;20817;-65
2022/12/27 09:41:47;;;;;;;9.60;3.93;;;5.20;99.90;;;;;;5066026;28;20662;-65
2022/12/27 09:44:40;;;;;;;9.57;3.60;;;5.40;99.90;;;;;;5064305;28;20242;-65
2022/12/27 09:47:14;;;;;;;6.80;3.33;;;5.60;99.90;;;;;;5067117;28;20293;-65
2022/12/27 09:49:46;;;;;;;6.30;3.70;;;5.80;99.90;;;;;;5058776;28;20207;-65
2022/12/27 09:52:18;;;;;;;5.33;3.60;;;5.70;99.90;;;;;;5065255;28;20540;-65
2022/12/27 09:54:58;;;;;;;12.23;4.17;;;5.70;99.90;;;;;;5069359;28;20210;-65
2022/12/27 09:57:37;;;;;;;8.93;3.80;;;5.70;99.90;;;;;;5063068;28;20219;-65
2022/12/27 10:00:13;;;;;;;7.23;3.40;;;6.20;99.90;;;;;;5064350;28;20200;-65
2022/12/27 10:02:43;;;;;;;8.07;3.33;;;6.60;99.90;;;;;;5068922;28;20215;-65
2022/12/27 10:05:20;;;;;;;6.50;3.53;;;6.70;99.90;;;;;;5066476;28;20196;-65
2022/12/27 10:08:02;;;;;;;9.90;3.67;;;6.60;99.90;;;;;;5066354;28;20207;-65
2022/12/27 10:10:42;;;;;;;9.13;3.60;;;6.40;99.90;;;;;;5068374;28;20204;-65
2022/12/27 10:13:24;;;;;;;8.47;3.90;;;6.30;99.90;;;;;;5068222;28;20198;-65
2022/12/27 10:16:00;;;;;;;6.37;3.77;;;6.30;99.90;;;;;;5067090;28;20226;-65
2022/12/27 10:18:38;;;;;;;7.20;3.80;;;6.30;99.90;;;;;;5066385;28;20659;-65
2022/12/27 10:21:16;;;;;;;9.87;4.17;;;6.20;99.90;;;;;;5070806;28;20200;-65
2022/12/27 10:23:53;;;;;;;12.33;4.10;;;6.20;99.90;;;;;;5070233;28;20246;-65
2022/12/27 10:26:23;;;;;;;8.63;4.13;;;6.20;99.90;;;;;;5056544;28;20216;-65
2022/12/27 10:28:55;;;;;;;9.40;4.20;;;6.20;99.90;;;;;;5061680;28;20207;-65
2022/12/27 10:31:25;;;;;;;7.00;3.63;;;6.10;99.90;;;;;;5079831;28;20196;-65
2022/12/27 10:33:54;;;;;;;6.97;3.83;;;6.10;99.90;;;;;;5060716;28;20196;-65
2022/12/27 10:36:25;;;;;;;5.40;4.20;;;6.10;99.90;;;;;;5068536;28;20196;-65
2022/12/27 10:38:54;;;;;;;6.90;4.07;;;6.10;99.90;;;;;;5060764;28;20220;-65
2022/12/27 10:41:39;;;;;;;6.97;3.97;;;6.20;99.90;;;;;;5060464;28;20668;-65
2022/12/27 10:44:10;;;;;;;7.87;4.00;;;6.30;99.90;;;;;;5094825;28;20219;-65
2022/12/27 10:46:41;;;;;;;8.63;3.80;;;6.50;99.90;;;;;;5067746;28;20190;-65
2022/12/27 10:49:23;;;;;;;8.07;3.60;;;6.70;99.90;;;;;;5063623;28;20220;-65
2022/12/27 10:51:52;;;;;;;7.27;3.70;;;7.10;99.90;;;;;;5066949;28;20200;-65
2022/12/27 10:54:23;;;;;;;5.77;3.57;;;7.30;99.90;;;;;;5063022;28;20200;-65
2022/12/27 10:56:55;;;;;;;9.53;3.80;;;7.50;99.90;;;;;;5061699;28;20196;-64
2022/12/27 10:59:24;;;;;;;7.53;3.60;;;7.70;99.90;;;;;;5063974;28;20214;-63
2022/12/27 11:02:16;;;;;;;7.10;3.70;;;7.90;99.90;;;;;;5059931;28;20654;-65
2022/12/27 11:04:59;;;;;;;5.23;3.20;;;7.80;99.90;;;;;;5059623;28;20238;-65
2022/12/27 11:07:32;;;;;;;5.80;3.40;;;8.00;99.90;;;;;;5062265;28;20675;-65
2022/12/27 11:10:14;;;;;;;13.40;3.93;;;8.30;99.90;;;;;;5058182;28;20271;-65
2022/12/27 11:13:00;;;;;;;11.30;3.70;;;8.60;99.90;;;;;;5064925;28;20231;-66
2022/12/27 11:15:31;;;;;;;12.57;3.40;;;8.80;99.90;;;;;;5058851;28;20200;-66
2022/12/27 11:18:09;;;;;;;6.13;3.50;;;8.70;99.90;;;;;;5057419;28;20232;-66
2022/12/27 11:20:39;;;;;;;3.53;3.17;;;8.50;99.90;;;;;;5068653;28;20543;-65
2022/12/27 11:23:13;;;;;;;7.97;3.17;;;8.20;99.90;;;;;;5063110;28;20287;-65
2022/12/27 11:25:55;;;;;;;11.57;3.77;;;8.00;99.90;;;;;;5064382;28;20224;-65
2022/12/27 11:28:32;;;;;;;5.00;3.13;;;7.80;99.90;;;;;;5060124;28;20204;-63
2022/12/27 11:31:03;;;;;;;9.47;3.40;;;7.70;99.90;;;;;;5066087;28;20752;-65
2022/12/27 11:33:38;;;;;;;6.03;3.50;;;7.70;99.90;;;;;;5070394;28;20200;-65
2022/12/27 11:36:08;;;;;;;8.57;3.27;;;7.60;99.90;;;;;;5057289;28;20214;-65
2022/12/27 11:38:39;;;;;;;7.47;3.43;;;7.50;99.90;;;;;;5065696;28;20208;-65
2022/12/27 11:41:12;;;;;;;9.30;3.13;;;7.50;99.90;;;;;;5057332;28;20214;-65
2022/12/27 11:43:47;;;;;;;11.57;3.80;;;7.50;99.90;;;;;;5067672;28;20204;-65
2022/12/27 11:46:24;;;;;;;8.17;4.10;;;7.50;99.90;;;;;;5067700;28;20188;-65
2022/12/27 11:48:55;;;;;;;5.33;3.17;;;7.60;99.90;;;;;;5062660;28;20644;-65
2022/12/27 11:51:43;;;;;;;7.40;3.57;;;7.50;99.90;;;;;;5064896;28;20291;-65
2022/12/27 11:54:33;;;;;;;8.20;3.80;;;7.50;99.90;;;;;;5065367;28;20199;-65
2022/12/27 11:57:17;;;;;;;6.50;3.23;;;7.50;99.90;;;;;;5062016;28;20753;-65
2022/12/27 11:59:59;;;;;;;7.03;3.67;;;7.40;99.90;;;;;;5058466;28;20291;-65
2022/12/27 12:02:33;;;;;;;9.20;3.17;;;7.40;99.90;;;;;;5059204;28;20283;-65
2022/12/27 12:05:45;;;;;;;10.73;3.80;;;7.40;99.90;;;;;;5052463;28;20210;-65
2022/12/27 12:08:33;;;;;;;10.33;3.80;;;7.40;99.90;;;;;;5069176;28;20678;-65
2022/12/27 12:11:13;;;;;;;8.90;3.70;;;7.40;99.90;;;;;;5061765;28;20236;-65
2022/12/27 12:14:02;;;;;;;8.87;3.47;;;7.50;99.90;;;;;;5105265;28;20210;-65
2022/12/27 12:16:53;;;;;;;9.63;3.50;;;7.50;99.90;;;;;;5065804;28;20199;-65
2022/12/27 12:19:38;;;;;;;8.23;3.50;;;7.50;99.90;;;;;;5070182;28;20238;-65
2022/12/27 12:22:33;;;;;;;7.03;3.43;;;7.60;99.90;;;;;;5069672;28;20196;-65
2022/12/27 12:25:31;;;;;;;6.93;3.43;;;7.60;99.90;;;;;;5071546;28;20296;-65
2022/12/27 12:28:25;;;;;;;14.33;3.63;;;7.70;99.90;;;;;;5066267;28;20188;-65
2022/12/27 12:31:26;;;;;;;6.17;3.37;;;7.70;99.90;;;;;;5050930;28;20675;-65
2022/12/27 12:34:13;;;;;;;7.93;3.60;;;7.70;99.90;;;;;;5061712;28;20206;-65
2022/12/27 12:36:54;;;;;;;9.97;4.17;;;7.80;99.90;;;;;;5066861;28;20206;-65
2022/12/27 12:39:33;;;;;;;8.10;3.57;;;7.80;99.90;;;;;;5071310;28;20216;-65
2022/12/27 12:42:14;;;;;;;8.80;3.70;;;7.80;99.90;;;;;;5065941;28;20211;-65
2022/12/27 12:45:10;;;;;;;12.10;3.40;;;7.80;99.90;;;;;;5057939;28;20544;-65
2022/12/27 12:48:02;;;;;;;5.13;3.47;;;7.90;99.90;;;;;;5063057;28;20200;-65
2022/12/27 12:50:54;;;;;;;8.67;3.83;;;8.00;99.90;;;;;;5065331;28;20188;-65
2022/12/27 12:53:36;;;;;;;9.70;4.10;;;8.00;99.90;;;;;;5065272;28;20197;-65
2022/12/27 12:56:20;;;;;;;5.77;3.10;;;8.00;99.90;;;;;;5073233;28;20192;-65
2022/12/27 12:58:57;;;;;;;7.63;3.30;;;8.10;99.90;;;;;;5061202;28;20192;-65
2022/12/27 13:01:47;;;;;;;7.53;3.50;;;8.10;99.90;;;;;;5062127;28;20733;-65
2022/12/27 13:04:37;;;;;;;11.57;3.67;;;8.20;99.90;;;;;;5066516;28;20238;-65
2022/12/27 13:07:30;;;;;;;11.87;3.47;;;8.20;99.90;;;;;;5069330;28;20211;-65
2022/12/27 13:10:56;;;;;;;6.77;3.27;;;8.20;99.90;;;;;;5067231;28;20226;-65
2022/12/27 13:13:42;;;;;;;14.27;4.37;;;8.20;99.90;;;;;;5062143;28;20267;-65
2022/12/27 13:16:20;;;;;;;11.30;3.93;;;8.20;99.90;;;;;;5067384;28;20192;-65
2022/12/27 13:18:57;;;;;;;11.20;4.00;;;8.20;99.90;;;;;;5065180;28;20208;-65
2022/12/27 13:21:41;;;;;;;23.30;9.97;;;8.30;99.90;;;;;;5067172;28;20214;-65
2022/12/27 13:24:23;;;;;;;7.67;4.03;;;8.30;99.90;;;;;;5049759;28;20209;-65
2022/12/27 13:27:06;;;;;;;7.90;4.17;;;8.40;99.90;;;;;;5062547;28;20192;-65
2022/12/27 13:29:46;;;;;;;7.70;3.20;;;8.60;99.90;;;;;;5059867;28;20657;-65
2022/12/27 13:32:25;;;;;;;6.73;2.90;;;8.70;99.90;;;;;;5061439;28;20275;-65
2022/12/27 13:35:03;;;;;;;8.63;3.43;;;8.80;99.90;;;;;;5066299;28;20197;-65
2022/12/27 13:37:44;;;;;;;12.60;3.63;;;8.80;99.90;;;;;;5062313;28;20198;-65
2022/12/27 13:40:45;;;;;;;6.50;3.20;;;8.80;99.90;;;;;;5063207;28;20575;-65
2022/12/27 13:43:36;;;;;;;5.13;2.53;;;8.70;99.90;;;;;;5063153;28;20196;-65
2022/12/27 13:46:20;;;;;;;8.20;3.23;;;8.70;99.90;;;;;;5062307;28;20188;-65
2022/12/27 13:49:01;;;;;;;6.33;2.97;;;8.60;99.90;;;;;;5067636;28;21005;-65
2022/12/27 13:51:51;;;;;;;5.10;3.10;;;8.50;99.90;;;;;;5061656;28;20188;-65
2022/12/27 13:54:58;;;;;;;8.10;3.10;;;8.40;99.90;;;;;;5062335;28;20211;-65
2022/12/27 13:57:48;;;;;;;6.80;3.23;;;8.30;99.90;;;;;;5065885;28;20203;-65
2022/12/27 14:00:18;;;;;;;5.73;3.10;;;8.20;99.90;;;;;;5071673;28;20208;-65
2022/12/27 14:03:26;;;;;;;11.07;3.57;;;8.10;99.90;;;;;;5076818;28;20651;-65
2022/12/27 14:06:18;;;;;;;14.43;3.53;;;8.00;99.90;;;;;;5066061;28;20205;-65
2022/12/27 14:09:16;;;;;;;5.70;2.90;;;8.00;99.90;;;;;;5067455;28;20279;-65
2022/12/27 14:12:02;;;;;;;10.43;3.60;;;8.00;99.90;;;;;;5063927;28;20219;-65
2022/12/27 14:14:37;;;;;;;9.07;3.27;;;8.00;99.90;;;;;;5060799;28;20196;-65
2022/12/27 14:17:22;;;;;;;7.23;3.37;;;8.00;99.90;;;;;;5068908;28;20529;-65
2022/12/27 14:20:20;;;;;;;9.97;3.53;;;8.10;99.90;;;;;;5061568;28;20568;-65
2022/12/27 14:23:24;;;;;;;9.87;3.47;;;8.20;99.90;;;;;;5066737;28;20212;-65
2022/12/27 14:26:40;;;;;;;5.93;3.70;;;8.30;99.90;;;;;;5053393;28;20218;-65
2022/12/27 14:29:35;;;;;;;5.57;3.77;;;8.40;99.90;;;;;;5045456;28;20220;-65
2022/12/27 14:32:40;;;;;;;12.20;3.73;;;8.50;99.90;;;;;;5035718;28;20294;-65
2022/12/27 14:35:45;;;;;;;11.03;3.70;;;8.50;99.90;;;;;;5066458;28;20216;-65
2022/12/27 14:38:46;;;;;;;11.97;3.70;;;8.50;99.90;;;;;;5058376;28;20577;-65
2022/12/27 14:41:56;;;;;;;6.50;3.70;;;8.40;99.90;;;;;;5069447;28;20222;-65
2022/12/27 14:45:10;;;;;;;6.77;3.00;;;8.40;99.90;;;;;;5031154;28;20212;-65
2022/12/27 14:48:10;;;;;;;4.83;2.90;;;8.40;99.90;;;;;;5057103;28;20204;-65
2022/12/27 14:51:13;;;;;;;12.73;3.43;;;8.40;99.90;;;;;;5045348;28;20208;-65
2022/12/27 14:54:49;;;;;;;11.30;3.33;;;8.30;99.90;;;;;;5069641;28;20247;-65
2022/12/27 14:57:29;;;;;;;13.77;3.70;;;8.20;99.90;;;;;;5052425;28;20543;-64
2022/12/27 15:00:11;;;;;;;5.63;2.83;;;8.10;99.90;;;;;;5092707;28;20204;-65
2022/12/27 15:03:10;;;;;;;4.70;2.90;;;8.10;99.90;;;;;;5068328;28;20199;-65
2022/12/27 15:05:51;;;;;;;4.30;2.90;;;8.00;99.90;;;;;;5063480;28;20200;-65
2022/12/27 15:08:31;;;;;;;8.50;3.07;;;8.00;99.90;;;;;;5056615;28;20192;-64
2022/12/27 15:11:29;;;;;;;17.23;4.40;;;7.90;99.90;;;;;;5059114;28;20227;-64
2022/12/27 15:14:10;;;;;;;7.90;3.60;;;7.90;99.90;;;;;;5061966;28;20196;-65
2022/12/27 15:16:48;;;;;;;11.50;3.57;;;7.80;99.90;;;;;;5061869;28;20192;-65
2022/12/27 15:19:44;;;;;;;9.97;3.87;;;7.80;99.90;;;;;;5058513;28;20202;-65
2022/12/27 15:22:21;;;;;;;10.50;3.83;;;7.70;99.90;;;;;;5062498;28;20335;-65
2022/12/27 15:24:59;;;;;;;7.30;4.23;;;7.70;99.90;;;;;;5067678;28;20215;-65
2022/12/27 15:27:33;;;;;;;5.10;3.17;;;7.60;99.90;;;;;;5059429;28;20200;-65
2022/12/27 15:30:11;;;;;;;7.43;3.73;;;7.60;99.90;;;;;;5057660;28;20702;-65